Airfield :
LOGIN :

Register | Disclaimer

   EN    FR    IT 

 










Legend :    VFR   Marginal VFR   IFR   Intensive IFR   Very Intensive IFR
Visi :
Ceiling :
>= 8 km
>= 3000ft
5 to 8 km
1000 to 3000 ft
1500m to 5 km
500 to 1000 ft
800 to 1500m
200 to 500 ft
< 800m
< 200 ft
Symbols :   Thunderstorms  Fog  Heavy snow  Heavy precipitations  Wind > 20 kt
SIGMETs :     Misc.  Thunderstorms  Icing  Turbulence  Mountain Waves  Volcanic Ashes






- Airport Elevation : 13 ft
- IATA code : OST


EBOS - Oostend bruges Int.

CURRENT METAR :
  • 032320Z 22006KT CAVOK 11/09 Q1021 NOSIG

EXPIRED METARs :
  • 032220Z 22005KT CAVOK 11/09 Q1021 NOSIG
  • 032150Z 23006KT CAVOK 11/09 Q1021 NOSIG
  • 032120Z 23006KT CAVOK 12/09 Q1021 NOSIG
  • 032050Z 23006KT CAVOK 12/09 Q1021 NOSIG

TAF TAF EBOS
Valid from the 03 at 18:00 until the 05 at 00:00 UTC


031700Z 0318/0424 28012KT 9999 FEW045
BECMG 0318/0320 22007KT
BECMG 0409/0411 29012KT
BECMG 0419/0421 23006KT



MET'MAP, your aeronautical weather chart ! - Copyright ORBIFLY December 2007 - Disclaimer

ORBIFLY MET'MAP TEAM :

Programming & Development : Alexandra Zaïnal
Original concept : Baudouin d'Aumeries
Technical & hardware support : Manuel Goepfert
Assistance : Marc-Olivier Méhu




SOURCES & CREDITS :

   NOAA